createdAt,value
2018-07-14T00:01:25.093Z,56043.95
2018-07-14T00:03:54.239Z,56038.81
2018-07-14T00:06:23.352Z,56040.86
2018-07-14T00:08:52.476Z,56053.20
2018-07-14T00:11:21.612Z,56043.95
2018-07-14T00:13:50.683Z,56063.48
2018-07-14T00:16:19.754Z,56054.23
2018-07-14T00:18:48.878Z,56061.43
2018-07-14T00:21:17.953Z,56070.68
2018-07-14T00:23:47.083Z,56050.12
2018-07-14T00:26:19.800Z,56053.20
2018-07-14T00:28:49.063Z,56038.81
2018-07-14T00:31:18.119Z,56051.14
2018-07-14T00:33:47.238Z,56049.09
2018-07-14T00:36:16.328Z,56030.58
2018-07-14T00:38:45.492Z,56058.34
2018-07-14T00:41:14.647Z,56037.78
2018-07-14T00:43:43.734Z,56046.00
2018-07-14T00:46:12.875Z,56044.98
2018-07-14T00:48:42.017Z,56016.19
2018-07-14T00:51:11.257Z,56038.81
2018-07-14T00:53:40.357Z,56043.95
2018-07-14T00:56:09.458Z,56052.18
2018-07-14T00:58:38.618Z,56043.95
2018-07-14T01:01:07.730Z,56050.12
2018-07-14T01:03:36.853Z,56056.29
2018-07-14T01:06:06.095Z,56059.37
2018-07-14T01:08:35.162Z,56053.20
2018-07-14T01:11:04.221Z,56053.20
2018-07-14T01:13:33.342Z,56047.03
2018-07-14T01:16:02.471Z,56049.09
2018-07-14T01:18:31.534Z,56058.34
2018-07-14T01:21:00.623Z,56039.84
2018-07-14T01:23:29.751Z,56052.18
2018-07-14T01:25:58.968Z,56065.54
2018-07-14T01:28:28.086Z,56047.03
2018-07-14T01:30:57.182Z,56082.00
2018-07-14T01:33:26.296Z,56065.54
2018-07-14T01:35:55.371Z,56075.82
2018-07-14T01:38:24.473Z,56055.26
2018-07-14T01:40:53.566Z,56043.95
2018-07-14T01:43:22.646Z,56032.64
2018-07-14T01:45:51.799Z,56059.37
2018-07-14T01:48:20.942Z,56040.86
2018-07-14T01:50:50.034Z,56069.65
2018-07-14T01:53:19.167Z,56056.29
2018-07-14T01:55:48.315Z,56082.00
2018-07-14T01:58:17.445Z,56059.37
2018-07-14T02:00:46.603Z,56088.16
2018-07-14T02:03:15.681Z,56051.14
2018-07-14T02:05:44.836Z,56054.23
2018-07-14T02:08:14.897Z,56065.54
2018-07-14T02:10:43.996Z,56071.71
2018-07-14T02:13:13.145Z,56054.23
2018-07-14T02:15:42.255Z,56088.16
2018-07-14T02:18:11.342Z,56053.20
2018-07-14T02:20:40.478Z,56061.43
2018-07-14T02:23:09.587Z,56084.05
2018-07-14T02:25:38.776Z,56067.60
2018-07-14T02:28:07.907Z,56044.98
2018-07-14T02:30:36.979Z,56053.20
2018-07-14T02:33:06.158Z,56092.28
2018-07-14T02:35:35.245Z,56089.19
2018-07-14T02:38:04.378Z,56066.57
2018-07-14T02:40:33.518Z,56106.67
2018-07-14T02:43:02.608Z,56059.37
2018-07-14T02:45:31.692Z,56075.82
2018-07-14T02:48:00.827Z,56074.80
2018-07-14T02:50:29.946Z,56063.48
2018-07-14T02:52:59.108Z,56074.80
2018-07-14T02:55:28.274Z,56101.53
2018-07-14T02:57:57.353Z,56073.77
2018-07-14T03:00:26.481Z,56065.54
2018-07-14T03:02:55.620Z,56071.71
2018-07-14T03:05:24.769Z,56048.06
2018-07-14T03:07:53.929Z,56084.05
2018-07-14T03:10:23.058Z,56078.91
2018-07-14T03:12:52.473Z,56096.39
2018-07-14T03:15:21.517Z,56071.71
2018-07-14T03:17:50.635Z,56042.92
2018-07-14T03:20:19.748Z,56053.20
2018-07-14T03:22:48.996Z,56030.58
2018-07-14T03:25:18.115Z,56061.43
2018-07-14T03:27:47.190Z,56100.50
2018-07-14T03:30:16.305Z,56083.02
2018-07-14T03:32:45.448Z,56086.11
2018-07-14T03:35:14.608Z,56061.43
2018-07-14T03:37:43.783Z,56061.43
2018-07-14T03:40:12.888Z,56071.71
2018-07-14T03:42:41.981Z,56047.03
2018-07-14T03:45:12.122Z,56063.48
2018-07-14T03:47:41.251Z,56075.82
2018-07-14T03:50:10.408Z,56075.82
2018-07-14T03:52:39.546Z,56065.54
2018-07-14T03:55:09.026Z,56090.22
2018-07-14T03:57:38.141Z,56065.54
2018-07-14T04:00:07.422Z,56084.05
2018-07-14T04:02:36.527Z,56031.61
2018-07-14T04:05:05.947Z,56093.30
2018-07-14T04:07:35.071Z,56054.23
2018-07-14T04:10:04.190Z,56069.65
2018-07-14T04:12:33.371Z,56068.62
2018-07-14T04:15:02.506Z,56028.52
2018-07-14T04:17:31.562Z,56072.74
2018-07-14T04:20:00.878Z,56067.60
2018-07-14T04:22:29.983Z,56062.46
2018-07-14T04:24:59.127Z,56060.40
2018-07-14T04:27:28.222Z,56047.03
2018-07-14T04:29:57.382Z,56052.18
2018-07-14T04:32:26.505Z,56068.62
2018-07-14T04:34:55.626Z,56061.43
2018-07-14T04:37:24.747Z,56060.40
2018-07-14T04:39:53.831Z,56061.43
2018-07-14T04:42:23.008Z,56043.95
2018-07-14T04:44:52.140Z,56046.00
2018-07-14T04:47:21.259Z,56037.78
2018-07-14T04:49:50.409Z,56048.06
2018-07-14T04:52:19.527Z,56030.58
2018-07-14T04:54:48.631Z,56019.27
2018-07-14T04:57:17.729Z,56057.32
2018-07-14T04:59:46.814Z,56043.95
2018-07-14T05:02:15.895Z,56063.48
2018-07-14T05:04:45.051Z,56065.54
2018-07-14T05:07:14.214Z,56092.28
2018-07-14T05:09:43.339Z,56031.61
2018-07-14T05:12:13.476Z,56068.62
2018-07-14T05:14:42.643Z,56031.61
2018-07-14T05:17:11.721Z,56055.26
2018-07-14T05:19:40.835Z,56038.81
2018-07-14T05:22:09.983Z,56084.05
2018-07-14T05:24:39.110Z,56020.30
2018-07-14T05:27:08.199Z,56021.33
2018-07-14T05:29:37.311Z,56040.86
2018-07-14T05:32:06.862Z,56040.86
2018-07-14T05:34:36.055Z,56005.90
2018-07-14T05:37:05.223Z,56014.13
2018-07-14T05:39:34.344Z,56054.23
2018-07-14T05:42:03.418Z,56005.90
2018-07-14T05:44:32.481Z,56052.18
2018-07-14T05:47:01.617Z,56041.89
2018-07-14T05:49:30.678Z,56042.92
2018-07-14T05:51:59.780Z,56018.24
2018-07-14T05:54:28.943Z,55876.35
2018-07-14T05:56:58.053Z,55833.17
2018-07-14T05:59:27.141Z,55805.41
2018-07-14T06:01:56.225Z,55864.01
2018-07-14T06:04:25.326Z,55813.63
2018-07-14T06:06:54.444Z,55836.25
2018-07-14T06:09:23.537Z,55804.38
2018-07-14T06:11:52.643Z,55810.55
2018-07-14T06:14:34.572Z,55781.76
2018-07-14T06:17:03.868Z,55822.88
2018-07-14T06:19:33.089Z,55792.04
2018-07-14T06:22:05.404Z,55738.57
2018-07-14T06:24:41.348Z,55798.21
2018-07-14T06:27:46.290Z,55767.36
2018-07-14T06:30:15.409Z,55754.00
2018-07-14T06:32:44.518Z,55749.89
2018-07-14T06:35:13.622Z,55783.81
2018-07-14T06:37:42.821Z,55807.46
2018-07-14T06:40:11.956Z,55823.91
2018-07-14T06:42:41.074Z,55779.70
2018-07-14T06:45:10.207Z,55809.52
2018-07-14T06:47:39.346Z,55781.76
2018-07-14T06:50:08.418Z,55816.71
2018-07-14T06:52:37.498Z,55814.66
2018-07-14T06:55:06.640Z,55946.27
2018-07-14T06:57:35.707Z,55977.11
2018-07-14T07:00:04.967Z,55987.40
2018-07-14T07:02:34.033Z,56044.98
2018-07-14T07:05:03.211Z,56032.64
2018-07-14T07:07:32.303Z,56062.46
2018-07-14T07:10:01.390Z,56010.02
2018-07-14T07:12:30.519Z,56040.86
2018-07-14T07:14:59.582Z,56039.84
2018-07-14T07:17:28.718Z,56008.99
2018-07-14T07:19:57.904Z,56030.58
2018-07-14T07:22:27.060Z,56053.20
2018-07-14T07:24:56.157Z,56012.07
2018-07-14T07:27:26.722Z,56051.14
2018-07-14T07:29:56.008Z,56032.64
2018-07-14T07:32:25.107Z,56029.55
2018-07-14T07:34:54.231Z,56026.47
2018-07-14T07:37:23.326Z,56034.70
2018-07-14T07:39:52.465Z,56035.72
2018-07-14T07:42:21.650Z,55994.59
2018-07-14T07:44:50.718Z,56005.90
2018-07-14T07:47:19.861Z,56007.96
2018-07-14T07:49:48.949Z,56008.99
2018-07-14T07:52:18.028Z,56020.30
2018-07-14T07:54:47.151Z,56012.07
2018-07-14T07:57:16.209Z,55987.40
2018-07-14T07:59:45.296Z,56021.33
2018-07-14T08:02:14.394Z,56005.90
2018-07-14T08:04:43.494Z,56014.13
2018-07-14T08:07:12.608Z,56016.19
2018-07-14T08:09:41.713Z,56007.96
2018-07-14T08:12:13.213Z,56005.90
2018-07-14T08:14:42.326Z,55995.62
2018-07-14T08:17:11.381Z,56028.52
2018-07-14T08:19:40.494Z,56041.89
2018-07-14T08:22:09.596Z,56015.16
2018-07-14T08:24:38.692Z,56007.96
2018-07-14T08:27:07.782Z,56006.93
2018-07-14T08:29:36.838Z,55999.73
2018-07-14T08:32:05.992Z,55977.11
2018-07-14T08:34:35.143Z,55976.09
2018-07-14T08:37:04.254Z,55979.17
2018-07-14T08:39:33.337Z,55960.66
2018-07-14T08:42:02.386Z,55977.11
2018-07-14T08:44:31.448Z,55989.45
2018-07-14T08:47:00.564Z,55975.06
2018-07-14T08:49:29.674Z,55938.04
2018-07-14T08:51:58.757Z,55893.83
2018-07-14T08:54:28.042Z,55848.59
2018-07-14T08:56:57.177Z,55834.20
2018-07-14T08:59:26.337Z,55836.25
2018-07-14T09:01:55.411Z,55824.94
2018-07-14T09:04:24.477Z,55827.00
2018-07-14T09:06:53.571Z,55785.87
2018-07-14T09:09:22.671Z,55780.73
2018-07-14T09:11:51.767Z,55785.87
2018-07-14T09:14:20.886Z,55835.22
2018-07-14T09:16:50.026Z,55785.87
2018-07-14T09:19:19.131Z,55779.70
2018-07-14T09:21:48.218Z,55779.70
2018-07-14T09:24:17.363Z,55809.52
2018-07-14T09:26:46.500Z,55785.87
2018-07-14T09:29:15.580Z,55808.49
2018-07-14T09:31:44.696Z,55793.07
2018-07-14T09:34:13.856Z,55818.77
2018-07-14T09:36:43.946Z,55812.60
2018-07-14T09:39:13.051Z,55817.75
2018-07-14T09:41:42.359Z,55817.75
2018-07-14T09:44:11.459Z,55820.83
2018-07-14T09:46:40.586Z,55818.77
2018-07-14T09:49:09.669Z,55816.71
2018-07-14T09:51:45.085Z,55800.27
2018-07-14T09:54:14.148Z,55813.63
2018-07-14T09:56:43.250Z,55805.41
2018-07-14T09:59:12.368Z,55814.66
2018-07-14T10:01:41.456Z,55787.93
2018-07-14T10:04:10.556Z,55823.91
2018-07-14T10:06:39.726Z,55836.25
2018-07-14T10:09:08.888Z,55829.05
2018-07-14T10:11:38.024Z,55846.53
2018-07-14T10:14:07.145Z,55869.15
2018-07-14T10:16:36.304Z,55889.72
2018-07-14T10:19:05.474Z,55868.12
2018-07-14T10:21:34.549Z,55835.22
2018-07-14T10:24:03.646Z,55877.38
2018-07-14T10:26:32.722Z,55848.59
2018-07-14T10:29:01.847Z,55849.62
2018-07-14T10:31:30.964Z,55861.95
2018-07-14T10:34:00.118Z,55913.36
2018-07-14T10:36:29.126Z,55957.58
2018-07-14T10:38:58.223Z,55962.72
2018-07-14T10:41:28.111Z,55953.46
2018-07-14T10:43:57.244Z,55967.86
2018-07-14T10:46:26.362Z,55960.66
2018-07-14T10:48:55.493Z,55934.96
2018-07-14T10:51:24.590Z,55961.69
2018-07-14T10:53:53.700Z,55948.32
2018-07-14T10:56:22.846Z,55960.66
2018-07-14T10:58:51.788Z,55951.41
2018-07-14T11:01:20.984Z,55955.52
2018-07-14T11:03:50.109Z,55967.86
2018-07-14T11:06:19.221Z,55929.82
2018-07-14T11:08:48.350Z,55954.49
2018-07-14T11:11:17.433Z,55945.24
2018-07-14T11:13:46.617Z,55923.65
2018-07-14T11:16:15.728Z,55953.46
2018-07-14T11:18:44.927Z,55917.48
2018-07-14T11:21:14.017Z,55939.07
2018-07-14T11:23:43.202Z,55913.36
2018-07-14T11:26:12.266Z,55954.49
2018-07-14T11:28:41.435Z,55944.21
2018-07-14T11:31:10.569Z,55921.59
2018-07-14T11:33:39.739Z,55942.16
2018-07-14T11:36:08.928Z,55948.32
2018-07-14T11:38:38.022Z,55956.55
2018-07-14T11:41:07.181Z,55952.44
2018-07-14T11:43:36.333Z,55952.44
2018-07-14T11:46:05.577Z,55931.87
2018-07-14T11:48:34.686Z,55903.08
2018-07-14T11:51:03.774Z,55929.82
2018-07-14T11:53:32.869Z,55940.10
2018-07-14T11:56:01.974Z,55940.10
2018-07-14T11:58:31.203Z,55923.65
2018-07-14T12:01:00.326Z,55945.24
2018-07-14T12:03:29.437Z,55924.68
2018-07-14T12:05:58.588Z,55925.70
2018-07-14T12:08:27.704Z,55924.68
2018-07-14T12:10:56.816Z,55940.10
2018-07-14T12:13:25.959Z,55945.24
2018-07-14T12:15:55.112Z,55934.96
2018-07-14T12:18:24.241Z,55927.76
2018-07-14T12:20:53.434Z,55930.84
2018-07-14T12:23:22.508Z,55925.70
2018-07-14T12:25:51.642Z,55916.45
2018-07-14T12:28:20.872Z,55888.69
2018-07-14T12:30:50.028Z,55876.35
2018-07-14T12:33:19.146Z,55903.08
2018-07-14T12:35:48.237Z,55885.61
2018-07-14T12:38:17.351Z,55900.00
2018-07-14T12:40:46.439Z,55865.04
2018-07-14T12:43:15.521Z,55898.97
2018-07-14T12:45:44.662Z,55903.08
2018-07-14T12:48:13.754Z,55878.41
2018-07-14T12:50:42.803Z,55939.07
2018-07-14T12:53:12.006Z,55911.31
2018-07-14T12:55:41.146Z,55915.42
2018-07-14T12:58:10.254Z,55926.73
2018-07-14T13:00:39.419Z,55896.91
2018-07-14T13:03:08.538Z,55907.20
2018-07-14T13:05:37.695Z,55904.11
2018-07-14T13:08:06.810Z,55884.57
2018-07-14T13:10:35.913Z,55874.29
2018-07-14T13:13:05.077Z,55868.12
2018-07-14T13:15:34.197Z,55887.66
2018-07-14T13:18:03.350Z,55892.80
2018-07-14T13:20:32.650Z,55857.84
2018-07-14T13:23:01.766Z,55847.56
2018-07-14T13:25:30.886Z,55903.08
2018-07-14T13:28:00.023Z,55897.94
2018-07-14T13:30:30.194Z,55848.59
2018-07-14T13:32:59.307Z,55856.81
2018-07-14T13:35:28.394Z,55890.75
2018-07-14T13:37:57.516Z,55897.94
2018-07-14T13:40:26.605Z,55880.46
2018-07-14T13:42:55.710Z,55872.24
2018-07-14T13:45:24.881Z,55884.57
2018-07-14T13:47:53.990Z,55888.69
2018-07-14T13:50:23.148Z,55854.76
2018-07-14T13:52:52.430Z,55913.36
2018-07-14T13:55:21.540Z,55932.90
2018-07-14T13:57:50.694Z,55874.29
2018-07-14T14:00:19.808Z,55882.52
2018-07-14T14:02:48.699Z,55856.81
2018-07-14T14:05:17.772Z,55873.27
2018-07-14T14:07:46.871Z,55845.50
2018-07-14T14:10:15.984Z,55856.81
2018-07-14T14:12:45.068Z,55890.75
2018-07-14T14:15:14.376Z,55870.18
2018-07-14T14:17:43.503Z,55837.28
2018-07-14T14:20:12.608Z,55871.21
2018-07-14T14:22:41.711Z,55862.98
2018-07-14T14:25:10.798Z,55854.76
2018-07-14T14:27:39.911Z,55889.72
2018-07-14T14:30:09.097Z,55861.95
2018-07-14T14:32:38.147Z,55861.95
2018-07-14T14:35:07.278Z,55890.75
2018-07-14T14:37:36.384Z,55904.11
2018-07-14T14:40:05.532Z,55889.72
2018-07-14T14:42:34.585Z,55886.63
2018-07-14T14:45:03.702Z,55915.42
2018-07-14T14:47:32.836Z,55885.61
2018-07-14T14:50:01.923Z,55885.61
2018-07-14T14:52:31.013Z,55886.63
2018-07-14T14:55:00.134Z,55878.41
2018-07-14T14:57:29.334Z,55915.42
2018-07-14T14:59:58.455Z,55874.29
2018-07-14T15:02:27.575Z,55888.69
2018-07-14T15:04:56.668Z,55864.01
2018-07-14T15:07:25.774Z,55890.75
2018-07-14T15:09:54.875Z,55894.86
2018-07-14T15:12:24.084Z,55905.14
2018-07-14T15:14:53.187Z,55921.59
2018-07-14T15:17:22.265Z,55878.41
2018-07-14T15:19:51.331Z,55876.35
2018-07-14T15:22:20.516Z,55890.75
2018-07-14T15:24:49.616Z,55889.72
2018-07-14T15:27:18.748Z,55898.97
2018-07-14T15:29:47.887Z,55923.65
2018-07-14T15:32:16.994Z,55895.89
2018-07-14T15:34:46.060Z,55907.20
2018-07-14T15:37:15.163Z,55874.29
2018-07-14T15:39:44.267Z,55919.54
2018-07-14T15:42:13.485Z,55913.36
2018-07-14T15:44:42.559Z,55911.31
2018-07-14T15:47:11.670Z,55939.07
2018-07-14T15:49:40.765Z,55882.52
2018-07-14T15:52:09.864Z,55894.86
2018-07-14T15:54:39.095Z,55917.48
2018-07-14T15:57:08.250Z,55894.86
2018-07-14T15:59:37.418Z,55935.98
2018-07-14T16:02:07.360Z,55891.77
2018-07-14T16:04:36.474Z,55880.46
2018-07-14T16:07:05.574Z,55903.08
2018-07-14T16:09:34.644Z,55890.75
2018-07-14T16:12:03.819Z,55908.23
2018-07-14T16:14:32.948Z,55907.20
2018-07-14T16:17:02.079Z,55905.14
2018-07-14T16:19:31.192Z,55902.05
2018-07-14T16:22:00.300Z,55886.63
2018-07-14T16:24:29.233Z,55874.29
2018-07-14T16:26:58.362Z,55909.25
2018-07-14T16:29:27.469Z,55906.17
2018-07-14T16:31:56.550Z,55896.91
2018-07-14T16:34:25.696Z,55907.20
2018-07-14T16:36:54.844Z,55926.73
2018-07-14T16:39:23.943Z,55913.36
2018-07-14T16:41:53.142Z,55912.34
2018-07-14T16:44:22.279Z,55919.54
2018-07-14T16:46:51.410Z,55915.42
2018-07-14T16:49:20.601Z,55896.91
2018-07-14T16:51:50.836Z,55933.93
2018-07-14T16:54:19.971Z,55894.86
2018-07-14T16:56:49.122Z,55911.31
2018-07-14T16:59:18.246Z,55937.01
2018-07-14T17:01:47.339Z,55938.04
2018-07-14T17:04:16.499Z,55934.96
2018-07-14T17:06:45.643Z,55928.79
2018-07-14T17:09:14.719Z,55915.42
2018-07-14T17:11:43.844Z,55911.31
2018-07-14T17:14:12.864Z,55946.27
2018-07-14T17:16:41.861Z,55922.62
2018-07-14T17:19:11.075Z,55931.87
2018-07-14T17:21:40.154Z,55928.79
2018-07-14T17:24:09.293Z,55925.70
2018-07-14T17:26:38.382Z,55944.21
2018-07-14T17:29:10.453Z,55944.21
2018-07-14T17:31:39.829Z,55911.31
2018-07-14T17:34:08.957Z,55946.27
2018-07-14T17:36:38.026Z,55908.23
2018-07-14T17:39:08.649Z,55944.21
2018-07-14T17:41:38.162Z,55933.93
2018-07-14T17:44:07.262Z,55921.59
2018-07-14T17:46:37.444Z,55938.04
2018-07-14T17:49:06.695Z,55961.69
2018-07-14T17:51:35.988Z,55952.44
2018-07-14T17:54:05.229Z,55924.68
2018-07-14T17:56:34.334Z,55943.18
2018-07-14T17:59:03.430Z,55948.32
2018-07-14T18:01:32.601Z,55944.21
2018-07-14T18:04:01.629Z,55935.98
2018-07-14T18:06:30.693Z,55974.03
2018-07-14T18:08:59.799Z,55941.13
2018-07-14T18:11:28.673Z,55935.98
2018-07-14T18:13:57.773Z,55943.18
2018-07-14T18:16:26.901Z,55919.54
2018-07-14T18:18:55.988Z,55948.32
2018-07-14T18:21:25.118Z,55929.82
2018-07-14T18:23:54.647Z,55925.70
2018-07-14T18:26:23.823Z,55949.35
2018-07-14T18:28:53.219Z,55971.97
2018-07-14T18:31:22.344Z,55963.75
2018-07-14T18:33:51.541Z,55942.16
2018-07-14T18:36:20.776Z,55989.45
2018-07-14T18:38:49.924Z,55964.78
2018-07-14T18:41:19.106Z,55970.95
2018-07-14T18:43:48.158Z,55966.83
2018-07-14T18:46:17.282Z,55963.75
2018-07-14T18:48:46.382Z,55940.10
2018-07-14T18:51:15.487Z,55956.55
2018-07-14T18:53:44.633Z,55975.06
2018-07-14T18:56:13.743Z,55964.78
2018-07-14T18:58:42.904Z,55973.00
2018-07-14T19:01:12.425Z,55950.38
2018-07-14T19:03:41.606Z,55964.78
2018-07-14T19:06:11.163Z,55953.46
2018-07-14T19:08:40.259Z,55957.58
2018-07-14T19:11:09.431Z,55991.51
2018-07-14T19:13:38.524Z,55940.10
2018-07-14T19:16:07.626Z,55960.66
2018-07-14T19:18:36.752Z,56006.93
2018-07-14T19:21:05.966Z,55970.95
2018-07-14T19:23:35.205Z,55977.11
2018-07-14T19:26:04.347Z,55993.57
2018-07-14T19:28:33.386Z,55986.37
2018-07-14T19:31:02.658Z,55999.73
2018-07-14T19:33:31.758Z,55970.95
2018-07-14T19:36:00.849Z,55975.06
2018-07-14T19:38:29.970Z,55968.89
2018-07-14T19:40:59.130Z,55943.18
2018-07-14T19:43:28.266Z,55964.78
2018-07-14T19:45:57.359Z,55980.20
2018-07-14T19:48:26.411Z,56010.02
2018-07-14T19:50:55.590Z,55976.09
2018-07-14T19:53:24.648Z,55982.25
2018-07-14T19:55:53.816Z,55988.43
2018-07-14T19:58:22.950Z,55961.69
2018-07-14T20:00:52.051Z,55946.27
2018-07-14T20:03:21.110Z,55973.00
2018-07-14T20:05:50.234Z,55968.89
2018-07-14T20:08:19.297Z,55977.11
2018-07-14T20:10:48.435Z,55980.20
2018-07-14T20:13:17.628Z,55997.68
2018-07-14T20:15:53.415Z,55965.80
2018-07-14T20:18:22.574Z,55964.78
2018-07-14T20:20:51.647Z,55960.66
2018-07-14T20:23:20.766Z,55962.72
2018-07-14T20:25:49.947Z,55970.95
2018-07-14T20:28:19.090Z,56003.85
2018-07-14T20:30:48.374Z,55973.00
2018-07-14T20:33:17.489Z,55979.17
2018-07-14T20:35:46.651Z,55963.75
2018-07-14T20:38:15.787Z,56010.02
2018-07-14T20:40:44.919Z,55966.83
2018-07-14T20:43:14.010Z,55987.40
2018-07-14T20:45:43.146Z,55964.78
2018-07-14T20:48:12.315Z,55987.40
2018-07-14T20:50:41.519Z,55981.23
2018-07-14T20:53:10.675Z,55967.86
2018-07-14T20:55:39.796Z,55956.55
2018-07-14T20:58:09.786Z,56012.07
2018-07-14T21:00:38.918Z,55965.80
2018-07-14T21:03:08.084Z,55992.54
2018-07-14T21:05:37.185Z,55985.34
2018-07-14T21:08:06.374Z,55989.45
2018-07-14T21:10:35.488Z,55983.28
2018-07-14T21:13:04.604Z,55981.23
2018-07-14T21:15:33.707Z,55990.48
2018-07-14T21:18:02.832Z,55987.40
2018-07-14T21:20:32.333Z,56001.79
2018-07-14T21:23:01.528Z,55991.51
2018-07-14T21:25:30.718Z,55997.68
2018-07-14T21:27:59.857Z,55958.61
2018-07-14T21:30:29.024Z,55999.73
2018-07-14T21:32:58.125Z,56003.85
2018-07-14T21:35:27.247Z,56005.90
2018-07-14T21:37:56.372Z,55981.23
2018-07-14T21:40:25.496Z,55994.59
2018-07-14T21:42:54.776Z,55979.17
2018-07-14T21:45:24.007Z,55996.65
2018-07-14T21:47:53.126Z,55986.37
2018-07-14T21:50:22.266Z,55978.14
2018-07-14T21:52:51.512Z,56002.82
2018-07-14T21:55:20.642Z,56001.79
2018-07-14T21:57:49.692Z,56006.93
2018-07-14T22:00:34.272Z,56000.76
2018-07-14T22:03:05.781Z,56020.30
2018-07-14T22:05:34.886Z,56003.85
2018-07-14T22:08:04.003Z,56025.44
2018-07-14T22:10:33.125Z,56020.30
2018-07-14T22:13:02.316Z,55998.71
2018-07-14T22:15:31.967Z,55991.51
2018-07-14T22:18:01.129Z,55987.40
2018-07-14T22:20:30.275Z,55983.28
2018-07-14T22:22:59.390Z,55989.45
2018-07-14T22:25:28.336Z,55999.73
2018-07-14T22:27:57.397Z,56006.93
2018-07-14T22:30:26.534Z,55970.95
2018-07-14T22:32:55.641Z,55990.48
2018-07-14T22:35:24.766Z,55990.48
2018-07-14T22:37:54.244Z,56007.96
2018-07-14T22:40:23.318Z,55999.73
2018-07-14T22:42:52.467Z,55988.43
2018-07-14T22:45:21.694Z,56006.93
2018-07-14T22:47:50.764Z,56003.85
2018-07-14T22:50:19.938Z,55999.73
2018-07-14T22:52:48.846Z,55995.62
2018-07-14T22:55:17.913Z,55977.11
2018-07-14T22:57:47.074Z,56002.82
2018-07-14T23:00:16.147Z,55977.11
2018-07-14T23:02:45.236Z,56004.87
2018-07-14T23:05:14.365Z,56004.87
2018-07-14T23:07:43.550Z,56014.13
2018-07-14T23:10:12.713Z,56012.07
2018-07-14T23:12:41.861Z,56010.02
2018-07-14T23:15:10.997Z,56013.10
2018-07-14T23:17:40.060Z,56001.79
2018-07-14T23:20:09.202Z,55983.28
2018-07-14T23:22:38.310Z,56008.99
2018-07-14T23:25:07.418Z,55994.59
2018-07-14T23:27:36.519Z,56034.70
2018-07-14T23:30:05.840Z,55993.57
2018-07-14T23:32:34.972Z,56008.99
2018-07-14T23:35:04.114Z,56012.07
2018-07-14T23:37:33.205Z,55985.34
2018-07-14T23:40:02.336Z,56017.21
2018-07-14T23:42:31.495Z,55977.11
2018-07-14T23:45:00.562Z,55977.11
2018-07-14T23:47:29.692Z,56004.87
2018-07-14T23:49:58.750Z,56024.41
2018-07-14T23:52:27.868Z,56031.61
2018-07-14T23:54:57.005Z,55996.65
2018-07-14T23:57:26.355Z,56031.61
2018-07-14T23:59:55.667Z,56024.41
